Time;durP1;ratioP1;P1;durP2;ratioP2;P2;SDS_P1;SDS_P2;PMS_P1;PMS_P2;Temp;Humidity;BMP_temperature;BMP_pressure;BME280_temperature;BME280_humidity;BME280_pressure;Samples;Min_cycle;Max_cycle;Signal;HPM_P1;HPM_P2
2022/11/22 00:01:08;;;;;;;;;;;;;;;;;;5015307;28;6937;-69
2022/11/22 00:03:42;;;;;;;;;;;;;;;;;;5015162;28;7071;-69
2022/11/22 00:06:08;;;;;;;;;;;;;;;;;;5014919;28;7086;-69
2022/11/22 00:11:48;;;;;;;;;;;;;;;;;;5014691;28;6733;-69
2022/11/22 00:14:14;;;;;;;;;;;;;;;;;;5014515;28;7091;-70
2022/11/22 00:16:51;;;;;;;;;;;;;;;;;;5014658;28;7798;-71
2022/11/22 00:19:17;;;;;;;;;;;;;;;;;;5014619;28;7045;-71
2022/11/22 00:21:48;;;;;;;;;;;;;;;;;;5015475;28;7153;-71
2022/11/22 00:24:13;;;;;;;;;;;;;;;;;;5015679;28;7189;-71
2022/11/22 00:26:53;;;;;;;;;;;;;;;;;;5014895;28;7135;-71
2022/11/22 00:29:18;;;;;;;;;;;;;;;;;;5014294;28;7137;-71
2022/11/22 00:31:44;;;;;;;;;;;;;;;;;;5007617;28;7318;-71
2022/11/22 00:34:10;;;;;;;;;;;;;;;;;;5014521;28;7066;-71
2022/11/22 00:36:36;;;;;;;;;;;;;;;;;;5016694;28;7081;-71
2022/11/22 00:39:01;;;;;;;;;;;;;;;;;;5018639;28;7107;-71
2022/11/22 00:41:29;;;;;;;;;;;;;;;;;;5018401;28;7331;-69
2022/11/22 00:43:54;;;;;;;;;;;;;;;;;;5017811;28;7885;-69
2022/11/22 00:46:20;;;;;;;;;;;;;;;;;;5017289;28;8781;-69
2022/11/22 00:48:51;;;;;;;;;;;;;;;;;;5018157;28;7350;-69
2022/11/22 00:51:16;;;;;;;;;;;;;;;;;;5017670;28;7793;-69
2022/11/22 00:53:42;;;;;;;;;;;;;;;;;;5017806;28;7165;-69
2022/11/22 00:56:08;;;;;;;;;;;;;;;;;;5017898;28;7317;-69
2022/11/22 00:58:51;;;;;;;;;;;;;;;;;;5018319;28;7054;-69
2022/11/22 01:01:16;;;;;;;;;;;;;;;;;;5018208;28;6897;-69
2022/11/22 01:03:42;;;;;;;;;;;;;;;;;;5018061;28;6957;-69
2022/11/22 01:06:37;;;;;;;;;;;;;;;;;;5017618;28;7763;-69
2022/11/22 01:09:03;;;;;;;;;;;;;;;;;;5017863;28;7209;-69
2022/11/22 01:11:28;;;;;;;;;;;;;;;;;;5018010;28;7394;-69
2022/11/22 01:13:56;;;;;;;;;;;;;;;;;;5017726;28;7160;-69
2022/11/22 01:16:22;;;;;;;;;;;;;;;;;;5017852;28;7167;-69
2022/11/22 01:18:47;;;;;;;;;;;;;;;;;;5015983;28;7136;-69
2022/11/22 01:21:15;;;;;;;;;;;;;;;;;;5017496;28;7414;-69
2022/11/22 01:23:41;;;;;;;;;;;;;;;;;;5017432;28;7205;-69
2022/11/22 01:26:14;;;;;;;;;;;;;;;;;;5017345;28;7906;-68
2022/11/22 01:28:40;;;;;;;;;;;;;;;;;;5017124;28;7465;-68
2022/11/22 01:31:05;;;;;;;;;;;;;;;;;;5016483;28;7078;-68
2022/11/22 01:33:30;;;;;;;;;;;;;;;;;;5017052;28;7004;-69
2022/11/22 01:35:57;;;;;;;;;;;;;;;;;;5017488;28;7039;-68
2022/11/22 01:38:23;;;;;;;;;;;;;;;;;;5017264;28;7200;-69
2022/11/22 01:41:10;;;;;;;;;;;;;;;;;;5016933;28;7063;-70
2022/11/22 01:43:36;;;;;;;;;;;;;;;;;;5017377;28;7045;-71
2022/11/22 01:46:06;;;;;;;;;;;;;;;;;;5015504;28;6904;-71
2022/11/22 01:48:55;;;;;;;;;;;;;;;;;;5017069;28;7019;-68
2022/11/22 01:51:29;;;;;;;;;;;;;;;;;;5017559;28;7168;-69
2022/11/22 01:53:58;;;;;;;;;;;;;;;;;;5016716;28;7053;-68
2022/11/22 01:56:27;;;;;;;;;;;;;;;;;;5016871;28;6945;-69
2022/11/22 01:58:58;;;;;;;;;;;;;;;;;;5017145;28;7211;-68
2022/11/22 02:01:26;;;;;;;;;;;;;;;;;;5017626;28;7070;-68
2022/11/22 02:03:55;;;;;;;;;;;;;;;;;;5017266;28;6950;-69
2022/11/22 02:06:25;;;;;;;;;;;;;;;;;;5017194;28;7329;-68
2022/11/22 02:08:56;;;;;;;;;;;;;;;;;;5016805;28;7176;-68
2022/11/22 02:11:42;;;;;;;;;;;;;;;;;;5016512;28;7197;-68
2022/11/22 02:14:09;;;;;;;;;;;;;;;;;;5015722;28;8451;-68
2022/11/22 02:16:36;;;;;;;;;;;;;;;;;;5017084;28;7421;-68
2022/11/22 02:19:03;;;;;;;;;;;;;;;;;;5016443;28;7148;-68
2022/11/22 02:21:35;;;;;;;;;;;;;;;;;;5017191;28;7149;-70
2022/11/22 02:24:09;;;;;;;;;;;;;;;;;;5016559;28;6823;-71
2022/11/22 02:26:36;;;;;;;;;;;;;;;;;;5015910;28;7083;-71
2022/11/22 02:31:38;;;;;;;;;;;;;;;;;;5032278;28;7288;-71
2022/11/22 02:34:12;;;;;;;;;;;;;;;;;;5034577;28;7084;-71
2022/11/22 02:36:47;;;;;;;;;;;;;;;;;;5037200;28;7154;-71
2022/11/22 02:39:15;;;;;;;;;;;;;;;;;;5035341;28;7810;-68
2022/11/22 02:41:43;;;;;;;;;;;;;;;;;;5035903;28;6953;-69
2022/11/22 02:44:12;;;;;;;;;;;;;;;;;;5035932;28;7188;-69
2022/11/22 02:46:49;;;;;;;;;;;;;;;;;;5036527;28;7054;-68
2022/11/22 02:52:17;;;;;;;;;;;;;;;;;;5035786;28;6780;-71
2022/11/22 02:54:42;;;;;;;;;;;;;;;;;;5034401;28;7133;-71
2022/11/22 02:57:08;;;;;;;;;;;;;;;;;;5035228;28;8767;-71
2022/11/22 02:59:58;;;;;;;;;;;;;;;;;;5036455;28;6812;-71
2022/11/22 03:02:24;;;;;;;;;;;;;;;;;;5035955;28;7141;-71
2022/11/22 03:05:05;;;;;;;;;;;;;;;;;;5035852;28;6809;-71
2022/11/22 03:07:33;;;;;;;;;;;;;;;;;;5035904;28;6826;-70
2022/11/22 03:09:59;;;;;;;;;;;;;;;;;;5035211;28;7181;-71
2022/11/22 03:12:24;;;;;;;;;;;;;;;;;;5035614;28;7092;-71
2022/11/22 03:14:50;;;;;;;;;;;;;;;;;;5035486;28;7034;-71
2022/11/22 03:17:16;;;;;;;;;;;;;;;;;;5035316;28;7297;-71
2022/11/22 03:19:47;;;;;;;;;;;;;;;;;;5035370;28;6872;-71
2022/11/22 03:22:13;;;;;;;;;;;;;;;;;;5035289;28;7021;-71
2022/11/22 03:24:55;;;;;;;;;;;;;;;;;;5035488;28;6925;-71
2022/11/22 03:27:20;;;;;;;;;;;;;;;;;;5035125;28;6984;-71
2022/11/22 03:29:47;;;;;;;;;;;;;;;;;;5030159;28;7041;-71
2022/11/22 03:32:13;;;;;;;;;;;;;;;;;;5034641;28;7172;-71
2022/11/22 03:34:39;;;;;;;;;;;;;;;;;;5035485;28;7096;-72
2022/11/22 03:37:04;;;;;;;;;;;;;;;;;;5034755;28;7076;-72
2022/11/22 03:39:38;;;;;;;;;;;;;;;;;;5035755;28;7215;-72
2022/11/22 03:42:04;;;;;;;;;;;;;;;;;;5035296;28;6889;-72
2022/11/22 03:44:29;;;;;;;;;;;;;;;;;;5035496;28;7034;-71
2022/11/22 03:46:55;;;;;;;;;;;;;;;;;;5035023;28;6948;-71
2022/11/22 03:49:21;;;;;;;;;;;;;;;;;;5035746;28;6970;-71
2022/11/22 03:52:06;;;;;;;;;;;;;;;;;;5034698;28;7061;-71
2022/11/22 03:54:32;;;;;;;;;;;;;;;;;;5035738;28;7041;-71
2022/11/22 03:56:58;;;;;;;;;;;;;;;;;;5034697;28;7013;-72
2022/11/22 03:59:25;;;;;;;;;;;;;;;;;;5034968;28;7018;-72
2022/11/22 04:01:51;;;;;;;;;;;;;;;;;;5034607;28;7025;-69
2022/11/22 04:04:16;;;;;;;;;;;;;;;;;;5034748;28;7479;-69
2022/11/22 04:06:44;;;;;;;;;;;;;;;;;;5033276;28;8444;-69
2022/11/22 04:09:10;;;;;;;;;;;;;;;;;;5035277;28;7107;-69
2022/11/22 04:11:39;;;;;;;;;;;;;;;;;;5038926;28;7281;-69
2022/11/22 04:17:04;;;;;;;;;;;;;;;;;;5030206;28;7407;-69
2022/11/22 04:19:30;;;;;;;;;;;;;;;;;;5037846;28;7089;-69
2022/11/22 04:21:55;;;;;;;;;;;;;;;;;;5038635;28;7476;-69
2022/11/22 04:27:13;;;;;;;;;;;;;;;;;;5038706;28;6926;-69
2022/11/22 04:29:38;;;;;;;;;;;;;;;;;;5039092;28;7102;-69
2022/11/22 04:34:58;;;;;;;;;;;;;;;;;;5038200;28;6915;-69
2022/11/22 04:37:23;;;;;;;;;;;;;;;;;;5038226;28;7111;-69
2022/11/22 04:40:03;;;;;;;;;;;;;;;;;;5039142;28;7047;-69
2022/11/22 04:45:13;;;;;;;;;;;;;;;;;;5038629;28;7056;-69
2022/11/22 04:53:10;;;;;;;;;;;;;;;;;;5038019;28;6811;-69
2022/11/22 04:55:35;;;;;;;;;;;;;;;;;;5037717;28;6817;-69
2022/11/22 04:58:13;;;;;;;;;;;;;;;;;;5038773;28;7055;-69
2022/11/22 05:00:39;;;;;;;;;;;;;;;;;;5037719;28;7446;-70
2022/11/22 05:03:28;;;;;;;;;;;;;;;;;;5038427;28;7246;-69
2022/11/22 05:05:54;;;;;;;;;;;;;;;;;;5038178;28;6943;-69
2022/11/22 05:08:20;;;;;;;;;;;;;;;;;;5038080;28;7214;-69
2022/11/22 05:13:54;;;;;;;;;;;;;;;;;;5037750;28;6802;-70
2022/11/22 05:16:19;;;;;;;;;;;;;;;;;;5037274;28;7041;-70
2022/11/22 05:19:18;;;;;;;;;;;;;;;;;;5038105;28;7002;-69
2022/11/22 05:21:43;;;;;;;;;;;;;;;;;;5038111;28;7013;-70
2022/11/22 05:24:21;;;;;;;;;;;;;;;;;;5038090;28;6961;-69
2022/11/22 05:26:47;;;;;;;;;;;;;;;;;;5037550;28;7127;-70
2022/11/22 05:29:14;;;;;;;;;;;;;;;;;;5037627;28;6941;-70
2022/11/22 05:31:52;;;;;;;;;;;;;;;;;;5035959;28;6859;-69
2022/11/22 05:34:17;;;;;;;;;;;;;;;;;;5036204;28;8748;-70
2022/11/22 05:36:44;;;;;;;;;;;;;;;;;;5037295;28;7031;-70
2022/11/22 05:39:10;;;;;;;;;;;;;;;;;;5037103;28;7211;-70
2022/11/22 05:41:57;;;;;;;;;;;;;;;;;;5036694;28;8513;-70
2022/11/22 05:44:22;;;;;;;;;;;;;;;;;;5036680;28;6950;-70
2022/11/22 05:46:48;;;;;;;;;;;;;;;;;;5036569;28;7363;-69
2022/11/22 05:49:14;;;;;;;;;;;;;;;;;;5036776;28;6968;-71
2022/11/22 05:51:54;;;;;;;;;;;;;;;;;;5036988;28;7180;-71
2022/11/22 05:54:19;;;;;;;;;;;;;;;;;;5036413;28;6936;-71
2022/11/22 05:56:47;;;;;;;;;;;;;;;;;;5037336;28;7128;-71
2022/11/22 05:59:13;;;;;;;;;;;;;;;;;;5036607;28;6922;-71
2022/11/22 06:01:39;;;;;;;;;;;;;;;;;;5036434;28;6880;-71
2022/11/22 06:04:11;;;;;;;;;;;;;;;;;;5036788;28;7427;-71
2022/11/22 06:06:37;;;;;;;;;;;;;;;;;;5037186;28;7048;-71
2022/11/22 06:09:09;;;;;;;;;;;;;;;;;;5036758;28;7151;-66
2022/11/22 06:11:35;;;;;;;;;;;;;;;;;;5036301;28;6828;-68
2022/11/22 06:14:04;;;;;;;;;;;;;;;;;;5036530;28;7040;-68
2022/11/22 06:16:30;;;;;;;;;;;;;;;;;;5036972;28;7167;-68
2022/11/22 06:18:56;;;;;;;;;;;;;;;;;;5036393;28;6813;-68
2022/11/22 06:21:23;;;;;;;;;;;;;;;;;;5036067;28;6828;-68
2022/11/22 06:23:52;;;;;;;;;;;;;;;;;;5036220;28;7180;-68
2022/11/22 06:26:18;;;;;;;;;;;;;;;;;;5036397;28;7035;-68
2022/11/22 06:28:46;;;;;;;;;;;;;;;;;;5034712;28;7182;-68
2022/11/22 06:31:14;;;;;;;;;;;;;;;;;;5036186;28;7204;-68
2022/11/22 06:33:41;;;;;;;;;;;;;;;;;;5035566;28;7323;-70
2022/11/22 06:36:08;;;;;;;;;;;;;;;;;;5035694;28;7025;-72
2022/11/22 06:38:50;;;;;;;;;;;;;;;;;;5035964;28;7496;-73
2022/11/22 06:41:18;;;;;;;;;;;;;;;;;;5035937;28;7179;-66
2022/11/22 06:43:44;;;;;;;;;;;;;;;;;;5035501;28;7301;-72
2022/11/22 06:46:12;;;;;;;;;;;;;;;;;;5035610;28;7142;-72
2022/11/22 06:48:39;;;;;;;;;;;;;;;;;;5035499;28;7195;-72
2022/11/22 06:51:25;;;;;;;;;;;;;;;;;;5036182;28;6881;-72
2022/11/22 06:53:53;;;;;;;;;;;;;;;;;;5035944;28;7233;-73
2022/11/22 06:56:36;;;;;;;;;;;;;;;;;;5025039;28;7405;-73
2022/11/22 06:59:03;;;;;;;;;;;;;;;;;;5015139;28;6918;-73
2022/11/22 07:01:36;;;;;;;;;;;;;;;;;;5015364;28;6935;-72
2022/11/22 07:04:02;;;;;;;;;;;;;;;;;;5026991;28;7201;-73
2022/11/22 07:06:37;;;;;;;;;;;;;;;;;;5034907;28;6832;-73
2022/11/22 07:09:08;;;;;;;;;;;;;;;;;;5025261;28;7181;-73
2022/11/22 07:14:45;;;;;;;;;;;;;;;;;;5015201;28;7015;-73
2022/11/22 07:17:11;;;;;;;;;;;;;;;;;;5015212;28;6907;-73
2022/11/22 07:19:36;;;;;;;;;;;;;;;;;;5015247;28;7254;-73
2022/11/22 07:22:02;;;;;;;;;;;;;;;;;;5015151;28;6887;-73
2022/11/22 07:24:29;;;;;;;;;;;;;;;;;;5015089;28;7467;-73
2022/11/22 07:26:54;;;;;;;;;;;;;;;;;;5014968;28;7096;-73
2022/11/22 07:29:20;;;;;;;;;;;;;;;;;;5015347;28;7052;-72
2022/11/22 07:34:48;;;;;;;;;;;;;;;;;;5014625;28;6700;-72
2022/11/22 07:37:22;;;;;;;;;;;;;;;;;;5014962;28;7003;-72
2022/11/22 07:39:49;;;;;;;;;;;;;;;;;;5015241;28;7795;-72
2022/11/22 07:42:24;;;;;;;;;;;;;;;;;;5015043;28;7233;-72
2022/11/22 07:44:52;;;;;;;;;;;;;;;;;;5014051;28;7188;-73
2022/11/22 07:47:18;;;;;;;;;;;;;;;;;;5014796;28;7056;-73
2022/11/22 07:52:53;;;;;;;;;;;;;;;;;;5014630;28;6694;-73
2022/11/22 07:55:19;;;;;;;;;;;;;;;;;;5014471;28;7173;-73
2022/11/22 07:57:51;;;;;;;;;;;;;;;;;;5014560;28;7354;-73
2022/11/22 08:00:17;;;;;;;;;;;;;;;;;;5014699;28;7055;-73
2022/11/22 08:02:45;;;;;;;;;;;;;;;;;;5014547;28;7092;-73
2022/11/22 08:05:11;;;;;;;;;;;;;;;;;;5031534;28;7248;-73
2022/11/22 08:10:39;;;;;;;;;;;;;;;;;;5034006;28;6989;-73
2022/11/22 08:13:05;;;;;;;;;;;;;;;;;;5034111;28;7021;-73
2022/11/22 08:15:48;;;;;;;;;;;;;;;;;;5034254;28;7128;-73
2022/11/22 08:18:14;;;;;;;;;;;;;;;;;;5033817;28;7389;-73
2022/11/22 08:20:40;;;;;;;;;;;;;;;;;;5034306;28;7330;-73
2022/11/22 08:23:06;;;;;;;;;;;;;;;;;;5033783;28;7932;-73
2022/11/22 08:25:47;;;;;;;;;;;;;;;;;;5033852;28;7236;-73
2022/11/22 08:28:13;;;;;;;;;;;;;;;;;;5034185;28;7365;-73
2022/11/22 08:30:38;;;;;;;;;;;;;;;;;;5030845;28;7214;-73
2022/11/22 08:33:04;;;;;;;;;;;;;;;;;;5034120;28;6949;-73
2022/11/22 08:35:29;;;;;;;;;;;;;;;;;;5034064;28;7101;-73
2022/11/22 08:37:56;;;;;;;;;;;;;;;;;;5034100;28;7009;-73
2022/11/22 08:40:24;;;;;;;;;;;;;;;;;;5025675;28;7195;-73
2022/11/22 08:42:52;;;;;;;;;;;;;;;;;;5037069;28;6949;-73
2022/11/22 08:45:17;;;;;;;;;;;;;;;;;;5013989;28;7252;-73
2022/11/22 08:47:47;;;;;;;;;;;;;;;;;;5013562;28;9423;-73
2022/11/22 08:50:14;;;;;;;;;;;;;;;;;;5025115;28;7162;-73
2022/11/22 08:52:47;;;;;;;;;;;;;;;;;;5013840;28;7250;-73
2022/11/22 08:55:13;;;;;;;;;;;;;;;;;;5013887;28;7053;-73
2022/11/22 08:57:38;;;;;;;;;;;;;;;;;;5017723;28;7150;-73
2022/11/22 09:00:05;;;;;;;;;;;;;;;;;;5017663;28;6981;-73
2022/11/22 09:02:31;;;;;;;;;;;;;;;;;;5017516;28;7306;-73
2022/11/22 09:04:56;;;;;;;;;;;;;;;;;;5017527;28;7533;-73
2022/11/22 09:07:40;;;;;;;;;;;;;;;;;;5017457;28;6955;-73
2022/11/22 09:16:14;;;;;;;;;;;;;;;;;;5017078;28;6704;-73
2022/11/22 09:18:40;;;;;;;;;;;;;;;;;;5017491;28;6976;-73
2022/11/22 09:21:18;;;;;;;;;;;;;;;;;;5017348;28;7290;-74
2022/11/22 09:23:45;;;;;;;;;;;;;;;;;;5017292;28;7169;-76
2022/11/22 09:26:33;;;;;;;;;;;;;;;;;;5017267;28;7248;-75
2022/11/22 09:28:58;;;;;;;;;;;;;;;;;;5017258;28;7255;-75
2022/11/22 09:31:33;;;;;;;;;;;;;;;;;;5008722;28;7025;-75
2022/11/22 09:33:59;;;;;;;;;;;;;;;;;;5016902;28;7008;-75
2022/11/22 09:36:40;;;;;;;;;;;;;;;;;;5016835;28;7131;-75
2022/11/22 09:39:07;;;;;;;;;;;;;;;;;;5016991;28;7093;-75
2022/11/22 09:41:52;;;;;;;;;;;;;;;;;;5017285;28;7168;-75
2022/11/22 09:51:05;;;;;;;;;;;;;;;;;;5016804;28;6959;-76
2022/11/22 09:53:39;;;;;;;;;;;;;;;;;;5016879;28;7012;-76
2022/11/22 09:56:10;;;;;;;;;;;;;;;;;;5017301;28;7182;-75
2022/11/22 09:59:03;;;;;;;;;;;;;;;;;;5016563;28;7160;-75
2022/11/22 10:04:38;;;;;;;;;;;;;;;;;;5016298;28;6985;-75
2022/11/22 10:07:10;;;;;;;;;;;;;;;;;;5015686;28;7151;-75
2022/11/22 10:09:59;;;;;;;;;;;;;;;;;;5016012;28;7166;-75
2022/11/22 10:12:25;;;;;;;;;;;;;;;;;;5017167;28;7491;-75
2022/11/22 10:15:06;;;;;;;;;;;;;;;;;;5017238;28;6802;-75
2022/11/22 10:17:40;;;;;;;;;;;;;;;;;;5016168;28;7030;-75
2022/11/22 10:20:16;;;;;;;;;;;;;;;;;;5016186;28;7444;-76
2022/11/22 10:23:05;;;;;;;;;;;;;;;;;;5015769;28;6968;-73
2022/11/22 10:25:33;;;;;;;;;;;;;;;;;;5015684;28;7171;-75
2022/11/22 10:28:08;;;;;;;;;;;;;;;;;;5016532;28;7166;-74
2022/11/22 10:30:40;;;;;;;;;;;;;;;;;;5015939;28;7064;-73
2022/11/22 10:33:33;;;;;;;;;;;;;;;;;;5014146;28;7174;-78
2022/11/22 10:36:01;;;;;;;;;;;;;;;;;;5031126;28;8670;-77
2022/11/22 10:38:45;;;;;;;;;;;;;;;;;;5016049;28;6966;-78
2022/11/22 10:41:13;;;;;;;;;;;;;;;;;;5015864;28;7170;-72
2022/11/22 10:43:53;;;;;;;;;;;;;;;;;;5016129;28;7404;-76
2022/11/22 10:46:21;;;;;;;;;;;;;;;;;;5015607;28;6825;-75
2022/11/22 10:51:59;;;;;;;;;;;;;;;;;;5015290;28;7031;-74
2022/11/22 10:54:30;;;;;;;;;;;;;;;;;;5016141;28;7195;-75
2022/11/22 11:00:15;;;;;;;;;;;;;;;;;;5015994;28;6684;-75
2022/11/22 11:02:58;;;;;;;;;;;;;;;;;;5016033;28;7063;-74
2022/11/22 11:05:55;;;;;;;;;;;;;;;;;;5015642;28;7417;-75
2022/11/22 11:08:42;;;;;;;;;;;;;;;;;;5015548;28;7016;-75
2022/11/22 11:11:13;;;;;;;;;;;;;;;;;;5015727;28;7000;-75
2022/11/22 11:14:01;;;;;;;;;;;;;;;;;;5016042;28;8298;-74
2022/11/22 11:16:33;;;;;;;;;;;;;;;;;;5015298;28;7945;-74
2022/11/22 11:19:16;;;;;;;;;;;;;;;;;;5015389;28;7198;-74
2022/11/22 11:21:42;;;;;;;;;;;;;;;;;;5015493;28;7264;-75
2022/11/22 11:24:13;;;;;;;;;;;;;;;;;;5015664;28;7265;-75
2022/11/22 11:26:40;;;;;;;;;;;;;;;;;;5015991;28;7358;-75
2022/11/22 11:29:18;;;;;;;;;;;;;;;;;;5015830;28;7125;-75
2022/11/22 11:31:48;;;;;;;;;;;;;;;;;;5011116;28;7328;-74
2022/11/22 11:36:57;;;;;;;;;;;;;;;;;;5017109;28;6999;-75
2022/11/22 11:39:28;;;;;;;;;;;;;;;;;;5015123;28;6870;-75
2022/11/22 11:42:20;;;;;;;;;;;;;;;;;;5015070;28;7077;-75
2022/11/22 11:44:46;;;;;;;;;;;;;;;;;;5015275;28;7170;-75
2022/11/22 11:47:33;;;;;;;;;;;;;;;;;;5015542;28;7309;-75
2022/11/22 11:49:59;;;;;;;;;;;;;;;;;;5015343;28;7042;-75
2022/11/22 11:52:25;;;;;;;;;;;;;;;;;;5015159;28;7827;-75
2022/11/22 11:54:58;;;;;;;;;;;;;;;;;;5014983;28;7216;-75
2022/11/22 11:57:24;;;;;;;;;;;;;;;;;;5015073;28;7408;-75
2022/11/22 12:00:00;;;;;;;;;;;;;;;;;;5015007;28;7229;-75
2022/11/22 12:02:26;;;;;;;;;;;;;;;;;;5014602;28;7330;-74
2022/11/22 12:04:58;;;;;;;;;;;;;;;;;;5012591;28;7147;-75
2022/11/22 12:07:33;;;;;;;;;;;;;;;;;;5012930;28;7062;-75
2022/11/22 12:13:04;;;;;;;;;;;;;;;;;;5014447;28;6692;-74
2022/11/22 12:15:45;;;;;;;;;;;;;;;;;;5015390;28;7032;-74
2022/11/22 12:18:37;;;;;;;;;;;;;;;;;;5015017;28;7210;-75
2022/11/22 12:21:03;;;;;;;;;;;;;;;;;;5014226;28;7334;-75
2022/11/22 12:23:31;;;;;;;;;;;;;;;;;;5014911;28;7049;-75
2022/11/22 12:25:59;;;;;;;;;;;;;;;;;;5014834;28;6932;-75
2022/11/22 12:28:27;;;;;;;;;;;;;;;;;;5014788;28;7318;-75
2022/11/22 12:31:02;;;;;;;;;;;;;;;;;;5015961;28;7048;-75
2022/11/22 12:33:33;;;;;;;;;;;;;;;;;;5018252;28;7349;-75
2022/11/22 12:36:02;;;;;;;;;;;;;;;;;;5018589;28;7235;-74
2022/11/22 12:38:34;;;;;;;;;;;;;;;;;;5019495;28;7275;-75
2022/11/22 12:41:20;;;;;;;;;;;;;;;;;;5034090;28;6877;-75
2022/11/22 12:43:45;;;;;;;;;;;;;;;;;;5019255;28;6825;-75
2022/11/22 12:46:17;;;;;;;;;;;;;;;;;;5018223;28;6932;-75
2022/11/22 12:48:49;;;;;;;;;;;;;;;;;;5018282;28;7063;-74
2022/11/22 12:54:15;;;;;;;;;;;;;;;;;;5018651;28;6763;-75
2022/11/22 12:56:43;;;;;;;;;;;;;;;;;;5018104;28;7100;-75
2022/11/22 12:59:10;;;;;;;;;;;;;;;;;;5018688;28;7230;-75
2022/11/22 13:01:36;;;;;;;;;;;;;;;;;;5018152;28;7044;-75
2022/11/22 13:04:10;;;;;;;;;;;;;;;;;;5018113;28;7138;-75
2022/11/22 13:06:56;;;;;;;;;;;;;;;;;;5018455;28;6953;-75
2022/11/22 13:09:31;;;;;;;;;;;;;;;;;;5018004;28;7192;-75
2022/11/22 13:12:02;;;;;;;;;;;;;;;;;;5018021;28;7993;-75
2022/11/22 13:14:42;;;;;;;;;;;;;;;;;;5018269;28;7201;-75
2022/11/22 13:20:18;;;;;;;;;;;;;;;;;;5017654;28;7020;-75
2022/11/22 13:26:05;;;;;;;;;;;;;;;;;;5017309;28;6744;-74
2022/11/22 13:28:37;;;;;;;;;;;;;;;;;;5017393;28;7058;-74
2022/11/22 13:31:05;;;;;;;;;;;;;;;;;;5017744;28;6866;-74
2022/11/22 13:33:32;;;;;;;;;;;;;;;;;;5017569;28;7229;-74
2022/11/22 13:36:31;;;;;;;;;;;;;;;;;;5017346;28;6960;-74
2022/11/22 13:39:02;;;;;;;;;;;;;;;;;;4994744;28;7632;-74
2022/11/22 13:41:38;;;;;;;;;;;;;;;;;;5018067;28;7154;-74
2022/11/22 13:44:15;;;;;;;;;;;;;;;;;;5016727;28;7414;-74
2022/11/22 13:46:53;;;;;;;;;;;;;;;;;;5017767;28;7364;-74
2022/11/22 13:49:41;;;;;;;;;;;;;;;;;;5017554;28;6959;-74
2022/11/22 13:52:13;;;;;;;;;;;;;;;;;;5017314;28;7200;-74
2022/11/22 13:54:40;;;;;;;;;;;;;;;;;;5017945;28;7147;-74
2022/11/22 13:57:25;;;;;;;;;;;;;;;;;;5017614;28;7132;-74
2022/11/22 14:03:23;;;;;;;;;;;;;;;;;;5017123;28;7139;-73
2022/11/22 14:05:51;;;;;;;;;;;;;;;;;;5017282;28;7262;-73
2022/11/22 14:08:37;;;;;;;;;;;;;;;;;;5017621;28;7066;-74
2022/11/22 14:11:06;;;;;;;;;;;;;;;;;;5016536;28;8606;-74
2022/11/22 14:13:31;;;;;;;;;;;;;;;;;;5017239;28;7408;-74
2022/11/22 14:16:06;;;;;;;;;;;;;;;;;;5017523;28;7425;-73
2022/11/22 14:19:08;;;;;;;;;;;;;;;;;;5016596;28;6908;-74
2022/11/22 14:21:49;;;;;;;;;;;;;;;;;;5026278;28;7194;-74
2022/11/22 14:24:34;;;;;;;;;;;;;;;;;;5035866;28;7237;-74
2022/11/22 14:30:37;;;;;;;;;;;;;;;;;;4994212;28;7155;-74
2022/11/22 14:33:14;;;;;;;;;;;;;;;;;;4994212;28;7051;-74
2022/11/22 14:39:12;;;;;;;;;;;;;;;;;;4994255;28;6789;-74
2022/11/22 14:41:42;;;;;;;;;;;;;;;;;;5007770;28;7178;-74
2022/11/22 14:47:35;;;;;;;;;;;;;;;;;;5013889;28;7050;-74
2022/11/22 14:50:03;;;;;;;;;;;;;;;;;;5013461;28;6980;-72
2022/11/22 14:52:32;;;;;;;;;;;;;;;;;;5013879;28;7141;-74
2022/11/22 14:55:04;;;;;;;;;;;;;;;;;;5013685;28;7138;-74
2022/11/22 14:57:33;;;;;;;;;;;;;;;;;;5013790;28;7151;-74
2022/11/22 15:03:06;;;;;;;;;;;;;;;;;;5014160;28;7065;-74
2022/11/22 15:05:58;;;;;;;;;;;;;;;;;;5014136;28;7174;-74
2022/11/22 15:08:42;;;;;;;;;;;;;;;;;;5015725;28;7064;-74
2022/11/22 15:11:32;;;;;;;;;;;;;;;;;;5014450;28;7240;-74
2022/11/22 15:14:00;;;;;;;;;;;;;;;;;;5016481;28;7220;-74
2022/11/22 15:16:31;;;;;;;;;;;;;;;;;;5015845;28;7387;-74
2022/11/22 15:19:01;;;;;;;;;;;;;;;;;;5015353;28;7216;-74
2022/11/22 15:21:27;;;;;;;;;;;;;;;;;;5015207;28;7257;-74
2022/11/22 15:23:59;;;;;;;;;;;;;;;;;;5015688;28;6934;-74
2022/11/22 15:26:26;;;;;;;;;;;;;;;;;;5015673;28;6871;-75
2022/11/22 15:28:53;;;;;;;;;;;;;;;;;;5015321;28;6949;-75
2022/11/22 15:31:22;;;;;;;;;;;;;;;;;;5015856;28;7105;-75
2022/11/22 15:33:53;;;;;;;;;;;;;;;;;;5012111;28;6861;-75
2022/11/22 15:36:40;;;;;;;;;;;;;;;;;;5015768;28;6872;-75
2022/11/22 15:39:10;;;;;;;;;;;;;;;;;;5015688;28;6849;-75
2022/11/22 15:41:35;;;;;;;;;;;;;;;;;;5014683;28;7138;-74
2022/11/22 15:44:05;;;;;;;;;;;;;;;;;;5015624;28;7063;-74
2022/11/22 15:46:36;;;;;;;;;;;;;;;;;;5014903;28;6933;-74
2022/11/22 15:49:04;;;;;;;;;;;;;;;;;;5015058;28;7178;-74
2022/11/22 15:51:38;;;;;;;;;;;;;;;;;;5015035;28;7330;-74
2022/11/22 15:54:04;;;;;;;;;;;;;;;;;;5014649;28;7116;-74
2022/11/22 16:00:02;;;;;;;;;;;;;;;;;;5014650;28;6938;-74
2022/11/22 16:02:29;;;;;;;;;;;;;;;;;;5014802;28;7191;-74
2022/11/22 16:04:57;;;;;;;;;;;;;;;;;;5014417;28;7143;-74
2022/11/22 16:07:38;;;;;;;;;;;;;;;;;;5014758;28;7295;-74
2022/11/22 16:10:26;;;;;;;;;;;;;;;;;;5013321;28;8529;-74
2022/11/22 16:12:52;;;;;;;;;;;;;;;;;;5014725;28;7068;-74
2022/11/22 16:15:38;;;;;;;;;;;;;;;;;;5014575;28;7195;-75
2022/11/22 16:18:09;;;;;;;;;;;;;;;;;;5014852;28;7205;-75
2022/11/22 16:20:40;;;;;;;;;;;;;;;;;;5015484;28;7090;-75
2022/11/22 16:23:09;;;;;;;;;;;;;;;;;;5015856;28;7149;-75
2022/11/22 16:25:35;;;;;;;;;;;;;;;;;;5014628;28;7475;-75
2022/11/22 16:28:06;;;;;;;;;;;;;;;;;;5015045;28;7442;-75
2022/11/22 16:30:44;;;;;;;;;;;;;;;;;;5014535;28;6866;-75
2022/11/22 16:33:11;;;;;;;;;;;;;;;;;;5007673;28;7026;-76
2022/11/22 16:35:36;;;;;;;;;;;;;;;;;;5014556;28;7082;-75
2022/11/22 16:38:02;;;;;;;;;;;;;;;;;;5015745;28;7171;-75
2022/11/22 16:40:28;;;;;;;;;;;;;;;;;;5015081;28;7225;-75
2022/11/22 16:42:53;;;;;;;;;;;;;;;;;;5014464;28;7123;-75
2022/11/22 16:45:49;;;;;;;;;;;;;;;;;;5014561;28;6801;-75
2022/11/22 16:48:19;;;;;;;;;;;;;;;;;;5014557;28;6977;-75
2022/11/22 16:50:51;;;;;;;;;;;;;;;;;;5014626;28;6999;-75
2022/11/22 16:53:17;;;;;;;;;;;;;;;;;;5014722;28;7150;-75
2022/11/22 16:55:56;;;;;;;;;;;;;;;;;;5015669;28;6997;-75
2022/11/22 16:58:22;;;;;;;;;;;;;;;;;;5014034;28;7224;-75
2022/11/22 17:00:49;;;;;;;;;;;;;;;;;;5014284;28;7359;-76
2022/11/22 17:03:24;;;;;;;;;;;;;;;;;;5013915;28;7905;-76
2022/11/22 17:05:58;;;;;;;;;;;;;;;;;;5015098;28;7007;-76
2022/11/22 17:08:24;;;;;;;;;;;;;;;;;;5014473;28;7149;-76
2022/11/22 17:11:00;;;;;;;;;;;;;;;;;;5014169;28;6967;-76
2022/11/22 17:13:26;;;;;;;;;;;;;;;;;;5015092;28;7047;-75
2022/11/22 17:16:04;;;;;;;;;;;;;;;;;;5014006;28;6897;-74
2022/11/22 17:18:29;;;;;;;;;;;;;;;;;;5017320;28;8187;-74
2022/11/22 17:20:55;;;;;;;;;;;;;;;;;;5017834;28;7181;-74
2022/11/22 17:23:31;;;;;;;;;;;;;;;;;;5017942;28;7157;-74
2022/11/22 17:25:57;;;;;;;;;;;;;;;;;;5017406;28;6864;-74
2022/11/22 17:28:31;;;;;;;;;;;;;;;;;;5017449;28;7062;-74
2022/11/22 17:30:58;;;;;;;;;;;;;;;;;;5017102;28;6931;-74
2022/11/22 17:33:24;;;;;;;;;;;;;;;;;;5014044;28;7131;-74
2022/11/22 17:35:51;;;;;;;;;;;;;;;;;;5017277;28;7441;-74
2022/11/22 17:38:17;;;;;;;;;;;;;;;;;;5017904;28;7190;-74
2022/11/22 17:40:44;;;;;;;;;;;;;;;;;;5016392;28;8515;-74
2022/11/22 17:43:19;;;;;;;;;;;;;;;;;;5017441;28;7944;-74
2022/11/22 17:45:45;;;;;;;;;;;;;;;;;;5018223;28;7292;-74
2022/11/22 17:51:12;;;;;;;;;;;;;;;;;;5018295;28;6976;-74
2022/11/22 17:53:50;;;;;;;;;;;;;;;;;;5017275;28;8274;-74
2022/11/22 17:56:15;;;;;;;;;;;;;;;;;;5017190;28;7203;-74
2022/11/22 17:58:43;;;;;;;;;;;;;;;;;;5017292;28;6918;-74
2022/11/22 18:01:08;;;;;;;;;;;;;;;;;;5016581;28;7042;-74
2022/11/22 18:06:39;;;;;;;;;;;;;;;;;;5017623;28;6683;-74
2022/11/22 18:09:05;;;;;;;;;;;;;;;;;;5016986;28;7276;-74
2022/11/22 18:11:32;;;;;;;;;;;;;;;;;;5016865;28;7140;-74
2022/11/22 18:14:22;;;;;;;;;;;;;;;;;;5016849;28;7114;-74
2022/11/22 18:16:48;;;;;;;;;;;;;;;;;;5016817;28;7340;-74
2022/11/22 18:19:17;;;;;;;;;;;;;;;;;;5016848;28;7174;-74
2022/11/22 18:21:43;;;;;;;;;;;;;;;;;;5016642;28;7082;-74
2022/11/22 18:24:09;;;;;;;;;;;;;;;;;;5017555;28;7394;-74
2022/11/22 18:26:34;;;;;;;;;;;;;;;;;;5017054;28;7078;-74
2022/11/22 18:29:02;;;;;;;;;;;;;;;;;;5016112;28;7161;-74
2022/11/22 18:31:28;;;;;;;;;;;;;;;;;;5016301;28;7021;-74
2022/11/22 18:33:53;;;;;;;;;;;;;;;;;;5015761;28;6926;-74
2022/11/22 18:36:24;;;;;;;;;;;;;;;;;;5016665;28;7028;-74
2022/11/22 18:38:50;;;;;;;;;;;;;;;;;;5015934;28;7084;-74
2022/11/22 18:41:17;;;;;;;;;;;;;;;;;;5016024;28;7973;-74
2022/11/22 18:43:43;;;;;;;;;;;;;;;;;;5015922;28;6975;-74
2022/11/22 18:46:21;;;;;;;;;;;;;;;;;;5015944;28;7283;-74
2022/11/22 18:48:47;;;;;;;;;;;;;;;;;;5015637;28;7238;-74
2022/11/22 18:51:25;;;;;;;;;;;;;;;;;;5015999;28;6828;-74
2022/11/22 18:53:51;;;;;;;;;;;;;;;;;;5015944;28;7823;-74
2022/11/22 18:56:17;;;;;;;;;;;;;;;;;;5016527;28;7085;-74
2022/11/22 19:01:49;;;;;;;;;;;;;;;;;;5015762;28;6931;-74
2022/11/22 19:04:15;;;;;;;;;;;;;;;;;;5015867;28;7066;-74
2022/11/22 19:06:43;;;;;;;;;;;;;;;;;;5016803;28;7094;-74
2022/11/22 19:09:09;;;;;;;;;;;;;;;;;;5015753;28;7240;-73
2022/11/22 19:11:41;;;;;;;;;;;;;;;;;;5016774;28;7042;-74
2022/11/22 19:14:07;;;;;;;;;;;;;;;;;;5015533;28;7204;-74
2022/11/22 19:16:38;;;;;;;;;;;;;;;;;;5016013;28;7019;-74